Aérodrome :
LOGIN :

S'inscrire | Disclaimer

   EN    FR    IT 

 










Légende :    VFR   VFR Marginal   IFR   IFR Intensif   IFR Très Intensif
Visi : 
Plafond : 
>= 8 km
>= 3000ft
5 à 8 km
1000 à 3000 ft
1500m à 5 km
500 à 1000 ft
800 à 1500m
200 à 500 ft
< 800m
< 200 ft
Symboles :   Orages  Brouillard  Fortes neiges  Fortes précipitations  Vent > 20 kt
SIGMETs :   Divers  Orages  Givrage  Turbulence  Onde Orograph.  Cendres Volcan.







- Altitude de l'aérodrome : 37 ft


EHVL - Vlieland Heliport

DERNIER METAR :
  • 192155Z AUTO 29015KT 9999 FEW026 SCT029 14/09 Q1019 BLU

METARs EXPIRÉS :
  • 192126Z AUTO 28015KT 9999 SCT025 BKN031 BKN040 14/09 Q1019 BLU
  • 192115Z AUTO 29015KT 9999 BKN024 BKN027 OVC031 14/10 Q1019 WHT
  • 192111Z AUTO 29015KT 9999 SCT024 BKN030 BKN035 14/09 Q1019 WHT
  • 192055Z AUTO 29015KT 9999 FEW026 OVC150 14/09 Q1019 BLU
  • 192032Z AUTO 30015KT 9999 SCT025 BKN028 BKN037 14/09 Q1019 BLU
  • 192025Z AUTO 30015KT 9999 BKN024 BKN029 BKN042 14/10 Q1019 WHT
  • 192019Z AUTO 30015KT 9999 SCT024 BKN027 OVC190 14/10 Q1019 WHT
  • 192003Z AUTO 30014KT 9999 FEW024 OVC190 14/10 Q1019 BLU
  • 191956Z AUTO 30014KT 9999 SCT024 OVC190 14/10 Q1019 WHT
  • 191946Z AUTO 30016KT 9999 BKN023 BKN027 BKN031 14/10 Q1019 WHT
  • 191938Z AUTO 30016KT 9999 SCT024 SCT028 OVC180 14/10 Q1019 WHT
  • 191925Z AUTO 31017KT 9999 FEW025 OVC190 14/10 Q1019 BLU
  • 191910Z AUTO 30017KT 9999 FEW020 BKN025 BKN035 14/10 Q1019 BLU

Prévision TAF périmée.
Pas de NOTAMs connus pour ce terrain.



MET'MAP, la Météo Aéronautique d'un coup d'oeil ! - Copyright ORBIFLY Décembre 2007 - Disclaimer

ORBIFLY MET'MAP TEAM :

Programmation & Développement : Alexandra Zaïnal
Conception & Développement : Baudouin d'Aumeries
Co-Programmation & Développement : Marc-Olivier Méhu
Soutien technique & logistique : Manuel Goepfert

Contact : metmap@orbifly.com




SOURCES & CREDITS :

   NOAA